Time;durP1;ratioP1;P1;durP2;ratioP2;P2;SDS_P1;SDS_P2;PMS_P1;PMS_P2;Temp;Humidity;BMP_temperature;BMP_pressure;BME280_temperature;BME280_humidity;BME280_pressure;Samples;Min_cycle;Max_cycle;Signal;HPM_P1;HPM_P2
2023/06/24 00:00:30;;;;;;;5.80;4.35;;;;;;;22.21;100.00;98103.66;5159816;27;20051;-51
2023/06/24 00:02:57;;;;;;;7.88;4.07;;;;;;;22.16;100.00;98121.06;5159859;27;20399;-51
2023/06/24 00:05:23;;;;;;;4.28;3.40;;;;;;;22.27;100.00;98106.59;5159734;27;20076;-52
2023/06/24 00:07:50;;;;;;;10.10;3.95;;;;;;;22.26;100.00;98124.63;5159866;27;20054;-51
2023/06/24 00:10:16;;;;;;;4.78;3.78;;;;;;;22.14;100.00;98080.88;5159396;27;20046;-57
2023/06/24 00:12:42;;;;;;;4.75;3.22;;;;;;;22.19;100.00;98099.78;5159941;27;20042;-59
2023/06/24 00:15:09;;;;;;;7.65;4.15;;;;;;;22.31;100.00;98130.31;5159318;27;20047;-60
2023/06/24 00:17:35;;;;;;;6.72;3.70;;;;;;;22.38;100.00;98104.09;5159629;27;20050;-54
2023/06/24 00:20:04;;;;;;;6.60;4.10;;;;;;;22.30;100.00;98106.44;5159585;27;20146;-59
2023/06/24 00:22:30;;;;;;;4.68;3.95;;;;;;;22.21;100.00;98089.72;5159291;27;20436;-56
2023/06/24 00:24:56;;;;;;;6.10;3.42;;;;;;;21.98;100.00;98068.81;5159381;27;20065;-56
2023/06/24 00:27:22;;;;;;;7.68;3.95;;;;;;;22.10;100.00;98061.50;5158922;27;20061;-53
2023/06/24 00:29:48;;;;;;;5.70;4.28;;;;;;;22.01;100.00;98058.72;5159550;27;20047;-51
2023/06/24 00:32:14;;;;;;;12.90;4.07;;;;;;;21.95;100.00;98036.25;5159107;27;20054;-52
2023/06/24 00:34:43;;;;;;;8.65;4.10;;;;;;;21.98;100.00;98031.75;5159412;27;20050;-52
2023/06/24 00:37:09;;;;;;;5.13;3.88;;;;;;;22.05;100.00;98032.19;5159218;27;20046;-56
2023/06/24 00:39:35;;;;;;;7.60;3.70;;;;;;;22.03;100.00;98031.91;5159485;27;20475;-53
2023/06/24 00:42:01;;;;;;;7.45;4.20;;;;;;;21.90;100.00;98005.44;5159134;27;20101;-51
2023/06/24 00:44:27;;;;;;;6.18;4.07;;;;;;;21.97;100.00;98019.06;5159582;27;20060;-53
2023/06/24 00:46:54;;;;;;;4.15;3.72;;;;;;;21.88;100.00;97993.97;5159174;27;20150;-58
2023/06/24 00:49:20;;;;;;;7.70;5.40;;;;;;;21.85;100.00;97965.75;5159303;27;20142;-52
2023/06/24 00:51:50;;;;;;;5.53;4.22;;;;;;;21.83;100.00;97982.22;5158898;27;20145;-57
2023/06/24 00:54:16;;;;;;;6.05;3.53;;;;;;;21.81;100.00;97964.38;5158882;27;20103;-52
2023/06/24 00:56:42;;;;;;;6.63;4.18;;;;;;;21.64;100.00;97949.25;5159160;27;20111;-61
2023/06/24 00:59:13;;;;;;;6.40;3.80;;;;;;;21.67;100.00;97948.31;5159119;27;20057;-60
2023/06/24 01:01:39;;;;;;;7.07;3.78;;;;;;;21.66;100.00;97955.13;5159117;27;20145;-52
2023/06/24 01:04:05;;;;;;;5.20;4.45;;;;;;;21.40;100.00;97936.00;5158711;27;20055;-52
2023/06/24 01:06:32;;;;;;;4.85;3.83;;;;;;;21.52;100.00;97943.38;5158816;27;20123;-51
2023/06/24 01:09:00;;;;;;;5.30;3.70;;;;;;;21.53;100.00;97944.97;5158619;27;20133;-59
2023/06/24 01:11:26;;;;;;;5.47;3.63;;;;;;;21.50;100.00;97943.09;5158999;27;20050;-60
2023/06/24 01:13:52;;;;;;;15.38;4.45;;;;;;;21.51;100.00;97957.81;5158657;27;20051;-58
2023/06/24 01:16:27;;;;;;;13.77;4.55;;;;;;;21.64;100.00;97963.97;5158671;27;20133;-51
2023/06/24 01:19:00;;;;;;;5.68;3.95;;;;;;;21.51;100.00;97936.28;5158672;27;20109;-53
2023/06/24 01:21:38;;;;;;;6.05;3.63;;;;;;;21.59;100.00;97925.56;5158411;27;20465;-59
2023/06/24 01:24:28;;;;;;;6.60;4.50;;;;;;;21.43;100.00;97934.31;5158549;27;20183;-53
2023/06/24 01:27:28;;;;;;;6.03;4.30;;;;;;;21.46;100.00;97944.50;5158279;27;20137;-58
2023/06/24 01:30:14;;;;;;;8.98;5.10;;;;;;;21.50;100.00;97945.88;5158440;27;20104;-55
2023/06/24 01:32:45;;;;;;;6.97;4.03;;;;;;;21.49;100.00;97937.97;5158581;27;20110;-55
2023/06/24 01:35:16;;;;;;;9.05;4.30;;;;;;;21.54;100.00;97945.72;5158187;27;20112;-54
2023/06/24 01:37:47;;;;;;;10.77;4.50;;;;;;;21.44;100.00;97924.69;5157564;27;20058;-59
2023/06/24 01:40:25;;;;;;;12.10;5.00;;;;;;;21.51;100.00;97929.94;5157943;27;20301;-53
2023/06/24 01:42:52;;;;;;;6.05;3.90;;;;;;;21.49;100.00;97924.03;5158583;27;20047;-52
2023/06/24 01:45:23;;;;;;;5.30;4.45;;;;;;;21.42;100.00;97904.84;5157990;27;20449;-58
2023/06/24 01:47:56;;;;;;;6.40;4.40;;;;;;;21.42;100.00;97886.09;5158234;27;20384;-52
2023/06/24 01:50:24;;;;;;;6.18;4.18;;;;;;;21.18;100.00;97868.50;5158237;27;20138;-52
2023/06/24 01:52:52;;;;;;;7.93;4.40;;;;;;;21.22;100.00;97866.31;5158049;27;20129;-52
2023/06/24 01:55:21;;;;;;;10.00;4.38;;;;;;;21.11;100.00;97842.50;5158252;27;20141;-52
2023/06/24 01:57:49;;;;;;;5.63;4.32;;;;;;;21.16;100.00;97846.69;5157879;27;20099;-55
2023/06/24 02:00:17;;;;;;;7.28;4.05;;;;;;;20.81;100.00;97816.41;5157873;27;20046;-59
2023/06/24 02:02:43;;;;;;;5.68;4.38;;;;;;;20.98;100.00;97836.34;5157801;27;20220;-58
2023/06/24 02:05:11;;;;;;;6.03;4.15;;;;;;;20.89;100.00;97836.34;5158382;27;20065;-58
2023/06/24 02:07:39;;;;;;;4.85;4.25;;;;;;;20.98;100.00;97841.13;5157693;27;20047;-59
2023/06/24 02:10:08;;;;;;;7.05;4.20;;;;;;;21.04;100.00;97834.47;5157933;27;20150;-60
2023/06/24 02:12:35;;;;;;;8.18;4.57;;;;;;;21.07;100.00;97838.34;5157682;27;20141;-57
2023/06/24 02:15:03;;;;;;;6.25;4.50;;;;;;;21.14;100.00;97843.59;5157763;27;20051;-59
2023/06/24 02:17:29;;;;;;;8.23;4.93;;;;;;;21.08;100.00;97840.66;5157765;27;20102;-60
2023/06/24 02:19:56;;;;;;;8.00;5.13;;;;;;;21.14;100.00;97841.56;5157511;27;20047;-55
2023/06/24 02:22:24;;;;;;;7.90;4.57;;;;;;;21.09;100.00;97839.44;5157763;27;20316;-53
2023/06/24 02:24:51;;;;;;;6.63;4.65;;;;;;;21.17;100.00;97850.25;5157621;27;20239;-60
2023/06/24 02:27:17;;;;;;;5.95;4.57;;;;;;;21.06;100.00;97845.94;5157939;27;20054;-56
2023/06/24 02:29:44;;;;;;;8.40;4.60;;;;;;;21.10;100.00;97845.75;5157424;27;20046;-56
2023/06/24 02:32:10;;;;;;;6.72;4.78;;;;;;;21.10;100.00;97840.19;5157872;27;20195;-56
2023/06/24 02:34:36;;;;;;;8.73;5.10;;;;;;;21.07;100.00;97841.91;5157350;27;20046;-60
2023/06/24 02:37:02;;;;;;;9.13;5.32;;;;;;;21.09;100.00;97856.16;5157998;27;20133;-57
2023/06/24 02:39:29;;;;;;;6.25;4.13;;;;;;;21.07;100.00;97857.84;5157586;27;20357;-54
2023/06/24 02:41:55;;;;;;;7.78;4.03;;;;;;;21.04;100.00;97845.63;5157525;27;20408;-54
2023/06/24 02:44:21;;;;;;;5.88;4.40;;;;;;;21.18;100.00;97854.56;5157597;27;20079;-54
2023/06/24 02:46:49;;;;;;;8.23;4.38;;;;;;;21.07;100.00;97855.81;5157392;27;20089;-53
2023/06/24 02:49:17;;;;;;;7.10;4.60;;;;;;;21.24;100.00;97858.28;5158067;27;20138;-52
2023/06/24 02:51:44;;;;;;;6.40;4.28;;;;;;;21.21;100.00;97846.03;5160928;27;20373;-51
2023/06/24 02:54:11;;;;;;;8.30;4.88;;;;;;;21.21;100.00;97853.63;5161093;27;20046;-55
2023/06/24 02:56:41;;;;;;;7.78;4.45;;;;;;;21.31;100.00;97866.28;5160835;27;20332;-55
2023/06/24 02:59:07;;;;;;;7.53;4.50;;;;;;;21.22;100.00;97860.75;5161061;27;20061;-51
2023/06/24 03:01:38;;;;;;;6.15;4.15;;;;;;;21.35;100.00;97875.28;5160664;27;20050;-58
2023/06/24 03:04:05;;;;;;;7.85;4.65;;;;;;;21.34;100.00;97871.72;5160514;27;20051;-60
2023/06/24 03:06:32;;;;;;;5.68;4.15;;;;;;;21.30;100.00;97873.88;5161045;27;20344;-55
2023/06/24 03:08:58;;;;;;;8.90;4.88;;;;;;;21.40;100.00;97877.47;5160713;27;20061;-61
2023/06/24 03:11:27;;;;;;;5.82;3.90;;;;;;;21.40;100.00;97880.25;5160828;27;20379;-50
2023/06/24 03:13:54;;;;;;;6.45;5.18;;;;;;;21.55;100.00;97886.69;5160333;27;20047;-59
2023/06/24 03:16:20;;;;;;;7.22;4.57;;;;;;;21.37;100.00;97881.94;5160789;27;20051;-53
2023/06/24 03:18:46;;;;;;;7.00;4.65;;;;;;;21.41;100.00;97873.41;5160293;27;20130;-55
2023/06/24 03:21:12;;;;;;;13.20;5.13;;;;;;;21.40;100.00;97874.66;5160630;27;20057;-59
2023/06/24 03:23:39;;;;;;;6.65;4.72;;;;;;;21.49;100.00;97883.00;5160293;27;20051;-59
2023/06/24 03:26:05;;;;;;;6.15;4.78;;;;;;;21.32;100.00;97884.56;5160678;27;20046;-58
2023/06/24 03:28:31;;;;;;;10.27;5.03;;;;;;;21.36;100.00;97863.69;5160334;27;20146;-60
2023/06/24 03:30:59;;;;;;;7.72;4.82;;;;;;;21.18;100.00;97862.91;5160581;27;20057;-52
2023/06/24 03:33:26;;;;;;;6.95;4.80;;;;;;;21.42;100.00;97865.81;5160385;27;20050;-60
2023/06/24 03:35:52;;;;;;;9.05;6.10;;;;;;;21.53;100.00;97875.25;5160151;27;20057;-56
2023/06/24 03:38:18;;;;;;;7.53;5.00;;;;;;;21.61;100.00;97870.09;5160126;27;20103;-56
2023/06/24 03:40:44;;;;;;;8.30;4.60;;;;;;;21.58;100.00;97869.00;5160152;27;20141;-57
2023/06/24 03:43:10;;;;;;;6.53;4.53;;;;;;;21.38;100.00;97866.75;5160304;27;20146;-59
2023/06/24 03:45:36;;;;;;;7.93;4.60;;;;;;;21.72;100.00;97859.19;5159928;27;20456;-55
2023/06/24 03:48:03;;;;;;;6.20;4.72;;;;;;;21.80;100.00;97888.31;5160295;27;20168;-55
2023/06/24 03:50:29;;;;;;;14.68;4.80;;;;;;;21.97;100.00;97897.06;5159825;27;20082;-55
2023/06/24 03:52:55;;;;;;;5.32;4.75;;;;;;;22.22;100.00;97909.03;5160226;27;20089;-57
2023/06/24 03:55:21;;;;;;;7.60;5.43;;;;;;;22.42;100.00;97922.41;5159631;27;20082;-59
2023/06/24 03:57:47;;;;;;;9.73;4.35;;;;;;;22.54;100.00;97938.94;5160222;27;20085;-59
2023/06/24 04:00:16;;;;;;;7.68;4.53;;;;;;;22.73;100.00;97975.91;5159672;27;20055;-58
2023/06/24 04:02:42;;;;;;;10.02;4.97;;;;;;;22.84;100.00;98010.91;5159120;27;20058;-56
2023/06/24 04:05:09;;;;;;;11.30;5.07;;;;;;;23.21;100.00;98020.59;5159463;27;20051;-52
2023/06/24 04:07:35;;;;;;;6.45;5.18;;;;;;;23.57;100.00;98107.47;5159709;27;20339;-58
2023/06/24 04:10:03;;;;;;;6.40;4.70;;;;;;;23.67;100.00;98145.31;5159675;27;20137;-59
2023/06/24 04:12:29;;;;;;;12.25;4.72;;;;;;;23.37;100.00;98092.09;5159642;27;20059;-59
2023/06/24 04:14:55;;;;;;;6.55;4.25;;;;;;;23.30;100.00;98086.09;5159784;27;20114;-52
2023/06/24 04:17:21;;;;;;;13.30;4.70;;;;;;;23.29;100.00;98082.50;5159412;27;20055;-57
2023/06/24 04:19:47;;;;;;;10.13;5.00;;;;;;;23.12;100.00;98042.25;5159351;27;20133;-57
2023/06/24 04:22:14;;;;;;;8.52;6.05;;;;;;;23.12;100.00;98042.25;5159429;27;20051;-57
2023/06/24 04:24:40;;;;;;;8.35;6.00;;;;;;;22.82;100.00;98002.22;5159787;27;20054;-58
2023/06/24 04:27:08;;;;;;;10.05;6.60;;;;;;;22.91;100.00;98021.72;5159295;27;20423;-60
2023/06/24 04:29:34;;;;;;;10.38;4.80;;;;;;;22.53;100.00;97996.03;5159573;27;20393;-58
2023/06/24 04:32:00;;;;;;;6.30;4.35;;;;;;;22.86;100.00;98003.59;5159151;27;20057;-53
2023/06/24 04:34:26;;;;;;;7.45;6.25;;;;;;;23.05;100.00;98023.81;5159212;27;20047;-53
2023/06/24 04:36:52;;;;;;;8.65;4.85;;;;;;;22.97;100.00;98014.25;5159320;27;20078;-51
2023/06/24 04:39:18;;;;;;;8.50;6.28;;;;;;;23.15;100.00;98052.47;5159170;27;20395;-53
2023/06/24 04:41:44;;;;;;;9.95;4.82;;;;;;;23.19;100.00;98061.44;5159318;27;20130;-51
2023/06/24 04:44:10;;;;;;;12.75;4.35;;;;;;;23.19;100.00;98075.44;5158888;27;20050;-57
2023/06/24 04:46:36;;;;;;;7.30;6.55;;;;;;;23.44;100.00;98102.13;5159352;27;20053;-60
2023/06/24 04:49:02;;;;;;;6.75;5.10;;;;;;;23.44;100.00;98130.09;5158822;27;20047;-53
2023/06/24 04:51:28;;;;;;;6.13;4.45;;;;;;;23.17;100.00;98106.69;5159309;27;20142;-54
2023/06/24 04:53:55;;;;;;;8.77;4.75;;;;;;;23.43;100.00;98109.75;5158848;27;20050;-52
2023/06/24 04:56:21;;;;;;;11.77;5.25;;;;;;;23.20;100.00;98104.97;5159202;27;20498;-53
2023/06/24 04:58:47;;;;;;;8.68;6.70;;;;;;;23.45;100.00;98117.66;5158751;27;20395;-55
2023/06/24 05:01:13;;;;;;;5.45;4.53;;;;;;;23.57;100.00;98118.66;5158900;27;20057;-53
2023/06/24 05:03:39;;;;;;;7.88;4.78;;;;;;;23.49;100.00;98112.66;5158970;27;20150;-58
2023/06/24 05:06:05;;;;;;;7.93;4.88;;;;;;;23.57;100.00;98121.47;5158741;27;20050;-61
2023/06/24 05:08:31;;;;;;;5.13;4.55;;;;;;;23.98;100.00;98163.75;5158731;27;20107;-59
2023/06/24 05:10:57;;;;;;;6.28;4.95;;;;;;;24.23;100.00;98201.63;5158670;27;20092;-56
2023/06/24 05:13:24;;;;;;;7.57;5.18;;;;;;;25.19;100.00;98260.13;5158612;27;20129;-53
2023/06/24 05:15:50;;;;;;;10.27;4.72;;;;;;;26.45;100.00;98429.38;5158769;27;20097;-54
2023/06/24 05:18:15;;;;;;;6.18;4.70;;;;;;;26.80;100.00;98514.97;5158724;27;20311;-54
2023/06/24 05:20:42;;;;;;;9.25;4.90;;;;;;;27.09;100.00;98539.34;5158426;27;20225;-53
2023/06/24 05:23:07;;;;;;;7.78;5.68;;;;;;;26.54;100.00;98501.59;5158770;27;20093;-58
2023/06/24 05:25:35;;;;;;;10.23;5.95;;;;;;;26.71;100.00;98519.44;5158380;27;20086;-60
2023/06/24 05:28:01;;;;;;;7.45;5.60;;;;;;;27.59;100.00;98575.75;5158733;27;20050;-56
2023/06/24 05:30:27;;;;;;;11.63;5.10;;;;;;;27.40;100.00;98609.88;5158744;27;20411;-60
2023/06/24 05:32:53;;;;;;;6.90;4.80;;;;;;;27.66;100.00;98615.53;5158687;27;20141;-56
2023/06/24 05:35:19;;;;;;;7.05;4.50;;;;;;;27.13;100.00;98611.06;5158372;27;20200;-58
2023/06/24 05:37:45;;;;;;;7.72;4.95;;;;;;;27.00;100.00;98599.34;5158614;27;20078;-59
2023/06/24 05:40:12;;;;;;;10.77;5.22;;;;;;;27.01;100.00;98600.88;5158229;27;20042;-55
2023/06/24 05:42:38;;;;;;;5.22;4.60;;;;;;;27.51;100.00;98606.41;5158295;27;20092;-56
2023/06/24 05:45:06;;;;;;;5.50;5.00;;;;;;;27.20;100.00;98607.81;5158447;27;20054;-59
2023/06/24 05:47:33;;;;;;;6.53;4.80;;;;;;;27.06;100.00;98608.63;5158084;27;20077;-56
2023/06/24 05:49:59;;;;;;;10.45;5.30;;;;;;;27.95;100.00;98639.16;5158322;27;20053;-56
2023/06/24 05:52:25;;;;;;;6.20;4.88;;;;;;;28.63;100.00;98651.09;5157963;27;20047;-59
2023/06/24 05:54:51;;;;;;;7.20;4.70;;;;;;;29.52;100.00;98676.25;5158263;27;20050;-60
2023/06/24 05:57:16;;;;;;;8.40;4.95;;;;;;;29.78;98.78;98690.25;5157848;27;20051;-59
2023/06/24 05:59:43;;;;;;;6.00;4.60;;;;;;;29.36;97.58;98683.38;5158089;27;20321;-56
2023/06/24 06:02:09;;;;;;;5.60;4.68;;;;;;;29.99;91.69;98699.31;5158089;27;20499;-52
2023/06/24 06:04:36;;;;;;;8.90;4.50;;;;;;;30.92;87.74;98704.88;5157795;27;20066;-58
2023/06/24 06:07:01;;;;;;;4.88;4.47;;;;;;;30.70;86.36;98708.44;5158059;27;20051;-56
2023/06/24 06:09:27;;;;;;;6.15;4.28;;;;;;;30.78;83.43;98711.56;5157850;27;20057;-54
2023/06/24 06:11:53;;;;;;;6.78;4.07;;;;;;;29.69;85.46;98702.56;5158072;27;20178;-53
2023/06/24 06:14:19;;;;;;;4.75;4.35;;;;;;;30.74;82.98;98711.00;5157676;27;20080;-55
2023/06/24 06:16:45;;;;;;;5.47;4.60;;;;;;;30.44;79.15;98705.84;5158041;27;20133;-58
2023/06/24 06:19:11;;;;;;;7.03;4.43;;;;;;;29.73;89.22;98691.78;5157607;27;20141;-61
2023/06/24 06:21:38;;;;;;;5.82;4.60;;;;;;;30.70;79.67;98707.69;5157962;27;20051;-56
2023/06/24 06:24:05;;;;;;;5.65;3.90;;;;;;;31.61;74.69;98718.38;5157823;27;20103;-61
2023/06/24 06:26:30;;;;;;;5.00;3.85;;;;;;;32.06;72.47;98721.03;5161550;27;20121;-57
2023/06/24 06:28:56;;;;;;;6.55;4.03;;;;;;;32.07;68.74;98724.66;5161357;27;20404;-55
2023/06/24 06:31:25;;;;;;;4.22;3.70;;;;;;;32.48;68.92;98727.50;5161019;27;20173;-55
2023/06/24 06:33:51;;;;;;;4.40;3.92;;;;;;;33.08;66.77;98732.47;5161372;27;20057;-60
2023/06/24 06:36:17;;;;;;;7.45;4.13;;;;;;;33.07;65.78;98735.84;5161069;27;20050;-58
2023/06/24 06:38:44;;;;;;;4.53;4.13;;;;;;;33.17;65.42;98726.44;5161081;27;20043;-55
2023/06/24 06:41:10;;;;;;;8.93;4.43;;;;;;;31.99;68.88;98723.63;5160935;27;20061;-54
2023/06/24 06:43:35;;;;;;;4.43;4.00;;;;;;;32.30;68.72;98730.97;5161516;27;20082;-52
2023/06/24 06:46:01;;;;;;;6.35;4.15;;;;;;;32.11;68.96;98740.06;5160872;27;20414;-54
2023/06/24 06:48:27;;;;;;;8.68;4.78;;;;;;;32.88;66.44;98744.22;5161301;27;20090;-55
2023/06/24 06:50:53;;;;;;;6.65;4.28;;;;;;;33.75;63.52;98745.19;5160830;27;20093;-57
2023/06/24 06:53:19;;;;;;;4.60;4.20;;;;;;;33.24;63.54;98736.44;5161282;27;20376;-60
2023/06/24 06:55:46;;;;;;;7.47;3.33;;;;;;;33.64;63.82;98740.41;5160371;27;20050;-56
2023/06/24 06:58:12;;;;;;;4.30;3.60;;;;;;;33.42;62.18;98743.47;5160802;27;20141;-58
2023/06/24 07:00:38;;;;;;;5.53;4.03;;;;;;;33.95;61.19;98741.84;5160778;27;20106;-59
2023/06/24 07:03:03;;;;;;;5.63;3.88;;;;;;;32.81;63.03;98740.66;5160967;27;20328;-59
2023/06/24 07:05:29;;;;;;;4.28;3.75;;;;;;;33.38;64.50;98738.09;5160651;27;20090;-56
2023/06/24 07:07:55;;;;;;;5.80;3.65;;;;;;;32.86;63.27;98747.63;5160653;27;20133;-54
2023/06/24 07:10:21;;;;;;;6.85;3.88;;;;;;;33.34;63.24;98740.47;5160767;27;20315;-51
2023/06/24 07:12:48;;;;;;;8.35;4.05;;;;;;;32.29;65.65;98750.03;5160396;27;20423;-56
2023/06/24 07:15:14;;;;;;;6.20;3.88;;;;;;;32.47;67.00;98745.81;5160563;27;20047;-56
2023/06/24 07:17:40;;;;;;;9.63;4.05;;;;;;;33.09;66.12;98742.53;5160153;27;20476;-55
2023/06/24 07:20:07;;;;;;;4.40;3.63;;;;;;;33.01;66.74;98744.41;5160586;27;20050;-52
2023/06/24 07:22:33;;;;;;;5.10;3.70;;;;;;;33.76;61.86;98755.28;5160243;27;20047;-60
2023/06/24 07:25:00;;;;;;;5.50;4.00;;;;;;;33.06;61.30;98754.16;5160517;27;20504;-59
2023/06/24 07:27:26;;;;;;;5.70;4.25;;;;;;;33.30;62.93;98754.19;5160353;27;20046;-55
2023/06/24 07:29:52;;;;;;;9.63;4.35;;;;;;;33.15;62.86;98753.81;5160284;27;20301;-53
2023/06/24 07:32:18;;;;;;;8.40;3.95;;;;;;;33.17;61.46;98766.19;5160460;27;20081;-55
2023/06/24 07:34:44;;;;;;;4.40;3.75;;;;;;;32.53;63.01;98757.91;5160112;27;20400;-55
2023/06/24 07:37:10;;;;;;;4.13;3.50;;;;;;;32.31;66.96;98755.94;5160110;27;20426;-55
2023/06/24 07:39:36;;;;;;;5.78;3.97;;;;;;;32.47;66.47;98753.56;5160161;27;20078;-55
2023/06/24 07:42:02;;;;;;;4.78;4.18;;;;;;;32.70;63.68;98752.13;5160232;27;20051;-54
2023/06/24 07:44:28;;;;;;;9.80;4.22;;;;;;;31.56;66.43;98750.34;5159860;27;20416;-55
2023/06/24 07:46:55;;;;;;;9.02;3.88;;;;;;;32.20;65.18;98752.41;5160327;27;20137;-52
2023/06/24 07:49:21;;;;;;;5.00;3.97;;;;;;;33.33;63.11;98764.50;5159888;27;20050;-54
2023/06/24 07:51:47;;;;;;;4.93;3.80;;;;;;;34.09;60.40;98765.50;5160234;27;20100;-51
2023/06/24 07:54:12;;;;;;;3.92;3.53;;;;;;;33.93;59.77;98778.59;5159691;27;20058;-52
2023/06/24 07:56:38;;;;;;;5.32;3.50;;;;;;;34.40;58.23;98768.94;5160413;27;20078;-55
2023/06/24 07:59:04;;;;;;;9.98;3.97;;;;;;;34.48;56.27;98781.25;5159977;27;20086;-54
2023/06/24 08:01:30;;;;;;;6.55;2.83;;;;;;;33.86;54.58;98776.34;5159900;27;20050;-57
2023/06/24 08:03:57;;;;;;;3.35;3.03;;;;;;;33.18;54.43;98772.66;5159926;27;20047;-58
2023/06/24 08:06:23;;;;;;;6.80;3.38;;;;;;;33.68;54.23;98775.00;5159800;27;20050;-57
2023/06/24 08:08:49;;;;;;;3.08;2.88;;;;;;;33.92;51.83;98771.38;5159928;27;20085;-58
2023/06/24 08:11:15;;;;;;;3.60;3.00;;;;;;;33.97;50.93;98769.75;5159568;27;20404;-55
2023/06/24 08:13:41;;;;;;;4.40;2.92;;;;;;;34.33;52.56;98767.50;5159990;27;20396;-59
2023/06/24 08:16:07;;;;;;;5.38;3.30;;;;;;;34.22;54.35;98761.94;5159470;27;20145;-51
2023/06/24 08:18:33;;;;;;;6.63;3.65;;;;;;;33.36;55.60;98765.53;5159763;27;20315;-53
2023/06/24 08:21:00;;;;;;;3.95;3.40;;;;;;;32.41;56.23;98772.66;5159409;27;20114;-55
2023/06/24 08:23:26;;;;;;;5.40;2.90;;;;;;;32.91;54.93;98769.50;5159812;27;20057;-52
2023/06/24 08:25:51;;;;;;;4.13;3.47;;;;;;;33.37;55.23;98767.06;5159219;27;20051;-55
2023/06/24 08:28:17;;;;;;;4.05;3.00;;;;;;;33.74;53.46;98769.25;5159632;27;20082;-57
2023/06/24 08:30:43;;;;;;;5.32;3.67;;;;;;;33.93;54.03;98770.06;5159489;27;20058;-57
2023/06/24 08:33:09;;;;;;;6.57;3.58;;;;;;;33.05;56.57;98770.44;5159133;27;20046;-59
2023/06/24 08:35:35;;;;;;;4.40;3.50;;;;;;;34.03;53.22;98769.72;5159084;27;20149;-59
2023/06/24 08:38:02;;;;;;;4.03;3.28;;;;;;;34.59;51.83;98777.47;5159513;27;20137;-59
2023/06/24 08:40:29;;;;;;;3.75;2.90;;;;;;;33.99;51.86;98767.16;5159463;27;20060;-59
2023/06/24 08:42:55;;;;;;;4.53;3.40;;;;;;;34.33;52.13;98769.56;5159121;27;20047;-51
2023/06/24 08:45:20;;;;;;;5.18;3.17;;;;;;;34.41;52.02;98779.78;5159588;27;20297;-52
2023/06/24 08:47:50;;;;;;;6.95;3.30;;;;;;;34.20;53.12;98782.41;5158673;27;20138;-56
2023/06/24 08:50:17;;;;;;;4.97;3.40;;;;;;;33.86;53.11;98782.03;5159339;27;20335;-57
2023/06/24 08:52:49;;;;;;;4.78;3.53;;;;;;;33.04;55.26;98783.88;5158791;27;20133;-58
2023/06/24 08:55:17;;;;;;;5.47;3.50;;;;;;;32.49;58.68;98773.66;5158584;27;20404;-59
2023/06/24 08:57:43;;;;;;;6.97;3.60;;;;;;;31.19;62.01;98773.31;5159044;27;20149;-58
2023/06/24 09:00:10;;;;;;;5.05;4.18;;;;;;;30.46;64.83;98773.22;5158932;27;20340;-52
2023/06/24 09:02:37;;;;;;;6.93;3.65;;;;;;;30.34;64.35;98771.66;5158776;27;20415;-57
2023/06/24 09:05:04;;;;;;;4.75;3.47;;;;;;;31.76;59.39;98782.47;5158768;27;20087;-51
2023/06/24 09:07:30;;;;;;;5.30;3.50;;;;;;;32.12;59.12;98774.88;5158899;27;20047;-55
2023/06/24 09:09:56;;;;;;;3.90;3.50;;;;;;;32.72;57.97;98775.06;5158497;27;20042;-57
2023/06/24 09:12:25;;;;;;;4.20;3.80;;;;;;;33.34;56.21;98790.84;5158926;27;20053;-59
2023/06/24 09:14:51;;;;;;;5.82;3.80;;;;;;;32.69;55.46;98789.53;5158434;27;20047;-54
2023/06/24 09:17:18;;;;;;;4.88;3.40;;;;;;;33.95;53.87;98787.34;5159044;27;20133;-60
2023/06/24 09:19:44;;;;;;;9.30;3.50;;;;;;;33.27;53.20;98790.13;5158470;27;20046;-59
2023/06/24 09:22:16;;;;;;;4.50;3.60;;;;;;;34.11;51.90;98787.69;5158277;27;20058;-52
2023/06/24 09:24:42;;;;;;;6.30;3.47;;;;;;;33.88;50.48;98787.19;5158409;27;20047;-59
2023/06/24 09:27:08;;;;;;;4.65;3.28;;;;;;;32.73;50.84;98790.78;5158299;27;20071;-54
2023/06/24 09:29:36;;;;;;;4.03;3.17;;;;;;;33.42;50.34;98784.06;5158216;27;20137;-55
2023/06/24 09:32:04;;;;;;;4.90;3.05;;;;;;;33.35;50.39;98787.44;5158424;27;20137;-59
2023/06/24 09:34:32;;;;;;;4.72;3.13;;;;;;;34.66;49.47;98789.03;5158451;27;20078;-54
2023/06/24 09:36:59;;;;;;;3.70;3.08;;;;;;;35.06;48.86;98782.75;5158122;27;20129;-55
2023/06/24 09:39:29;;;;;;;8.48;3.38;;;;;;;34.23;51.11;98783.41;5158503;27;20046;-59
2023/06/24 09:41:55;;;;;;;9.90;3.60;;;;;;;32.63;56.19;98788.81;5157991;27;20055;-57
2023/06/24 09:44:21;;;;;;;4.60;3.53;;;;;;;31.93;58.28;98782.44;5158429;27;20102;-59
2023/06/24 09:46:48;;;;;;;4.50;3.65;;;;;;;31.36;59.36;98793.91;5157878;27;20047;-53
2023/06/24 09:49:14;;;;;;;4.70;3.35;;;;;;;30.37;60.62;98785.53;5158219;27;20061;-58
2023/06/24 09:51:43;;;;;;;4.75;3.42;;;;;;;29.55;61.58;98780.50;5158198;27;20149;-53
2023/06/24 09:54:10;;;;;;;5.15;3.38;;;;;;;29.74;62.37;98777.31;5157909;27;20530;-53
2023/06/24 09:56:37;;;;;;;4.28;3.50;;;;;;;29.93;61.43;98772.78;5158159;27;20050;-52
2023/06/24 09:59:04;;;;;;;5.03;3.35;;;;;;;30.30;59.86;98766.25;5156887;27;20137;-59
2023/06/24 10:01:32;;;;;;;4.95;3.55;;;;;;;31.35;58.90;98763.25;5158094;27;20305;-57
2023/06/24 10:03:59;;;;;;;6.70;3.70;;;;;;;32.00;57.87;98767.72;5157898;27;20368;-60
2023/06/24 10:06:26;;;;;;;4.53;3.50;;;;;;;31.88;57.53;98767.75;5158253;27;20187;-56
2023/06/24 10:08:52;;;;;;;5.18;3.40;;;;;;;32.19;56.32;98770.72;5157766;27;20137;-59
2023/06/24 10:11:18;;;;;;;4.00;3.60;;;;;;;32.68;57.06;98763.22;5158201;27;20094;-57
2023/06/24 10:13:44;;;;;;;4.60;3.30;;;;;;;32.37;56.31;98772.94;5157711;27;20386;-60
2023/06/24 10:16:11;;;;;;;4.88;3.40;;;;;;;32.25;55.96;98766.56;5158274;27;20047;-54
2023/06/24 10:18:38;;;;;;;4.50;3.70;;;;;;;33.03;53.73;98775.88;5157825;27;20046;-55
2023/06/24 10:21:06;;;;;;;5.35;3.28;;;;;;;32.84;53.87;98774.97;5157508;27;20097;-59
2023/06/24 10:23:34;;;;;;;4.55;3.40;;;;;;;32.80;53.38;98769.59;5157852;27;20047;-53
2023/06/24 10:26:00;;;;;;;3.53;3.22;;;;;;;32.94;52.82;98771.28;5157739;27;20138;-60
2023/06/24 10:28:26;;;;;;;4.35;3.38;;;;;;;33.15;51.69;98768.03;5157845;27;20146;-61
2023/06/24 10:30:56;;;;;;;4.40;3.70;;;;;;;33.36;52.43;98768.34;5157559;27;20057;-58
2023/06/24 10:33:23;;;;;;;6.85;3.53;;;;;;;33.24;53.43;98759.94;5157892;27;20054;-61
2023/06/24 10:35:50;;;;;;;3.47;3.17;;;;;;;32.78;53.07;98767.25;5157307;27;20368;-56
2023/06/24 10:38:17;;;;;;;3.63;3.33;;;;;;;33.31;52.97;98767.09;5157910;27;20139;-57
2023/06/24 10:40:43;;;;;;;4.75;3.67;;;;;;;33.55;52.67;98766.34;5157331;27;20134;-55
2023/06/24 10:43:29;;;;;;;3.60;3.30;;;;;;;32.63;54.44;98760.44;5157742;27;20335;-55
2023/06/24 10:45:57;;;;;;;6.78;3.75;;;;;;;31.51;55.76;98761.69;5157552;27;20051;-60
2023/06/24 10:48:23;;;;;;;5.90;3.50;;;;;;;31.30;56.39;98759.13;5157201;27;20061;-58
2023/06/24 10:50:49;;;;;;;4.30;3.42;;;;;;;31.57;56.27;98765.28;5157561;27;20137;-59
2023/06/24 10:53:18;;;;;;;4.25;3.75;;;;;;;31.92;57.07;98761.03;5157280;27;20050;-60
2023/06/24 10:55:45;;;;;;;8.27;4.22;;;;;;;31.63;57.50;98761.13;5157594;27;20055;-55
2023/06/24 10:58:13;;;;;;;4.75;3.63;;;;;;;31.47;58.76;98758.34;5157171;27;20058;-55
2023/06/24 11:00:39;;;;;;;4.95;3.80;;;;;;;31.74;57.41;98760.31;5157578;27;20055;-54
2023/06/24 11:03:10;;;;;;;6.03;3.28;;;;;;;31.73;57.06;98753.13;5156977;27;20515;-53
2023/06/24 11:05:39;;;;;;;6.88;3.83;;;;;;;31.76;56.98;98743.56;5157435;27;20385;-59
2023/06/24 11:08:05;;;;;;;5.57;3.70;;;;;;;31.44;57.26;98756.53;5157232;27;20051;-56
2023/06/24 11:10:32;;;;;;;7.07;3.65;;;;;;;31.10;56.89;98751.69;5158160;27;20110;-57
2023/06/24 11:13:05;;;;;;;4.25;3.55;;;;;;;31.40;57.58;98751.16;5160565;27;20061;-55
2023/06/24 11:15:32;;;;;;;;;;;;;;;30.93;55.65;98746.03;5160813;27;20491;-59
2023/06/24 11:17:58;;;;;;;4.40;3.45;;;;;;;31.12;56.45;98751.94;5161007;27;20013;-60
2023/06/24 11:20:24;;;;;;;4.00;3.40;;;;;;;30.94;56.46;98746.78;5160450;27;20046;-59
2023/06/24 11:22:50;;;;;;;4.47;3.05;;;;;;;31.08;56.30;98747.81;5160725;27;20108;-56
2023/06/24 11:25:16;;;;;;;3.97;3.20;;;;;;;31.28;56.52;98747.53;5160242;27;20404;-54
2023/06/24 11:27:43;;;;;;;3.85;3.00;;;;;;;31.26;55.24;98752.94;5160531;27;20050;-50